Time;durP1;ratioP1;P1;durP2;ratioP2;P2;SDS_P1;SDS_P2;PMS_P1;PMS_P2;Temp;Humidity;BMP_temperature;BMP_pressure;BME280_temperature;BME280_humidity;BME280_pressure;Samples;Min_cycle;Max_cycle;Signal;HPM_P1;HPM_P2
2022/08/12 00:43:05;;;;;;;7.40;2.58;;;;;;;21.14;51.12;101799.16;5232458;28;20466;-69
2022/08/12 00:46:29;;;;;;;4.90;2.13;;;;;;;21.19;50.70;101805.81;5227885;28;20104;-69
2022/08/12 00:48:27;;;;;;;5.90;2.53;;;;;;;21.05;51.62;101802.88;5232098;28;20576;-69
2022/08/12 00:51:01;;;;;;;5.47;2.67;;;;;;;21.17;49.84;101795.28;5232839;28;20033;-69
2022/08/12 00:53:34;;;;;;;5.53;2.60;;;;;;;21.17;49.38;101797.97;5230734;28;20033;-69
2022/08/12 00:56:06;;;;;;;5.57;2.67;;;;;;;21.27;48.48;101795.91;5229510;28;20388;-69
2022/08/12 00:58:44;;;;;;;5.43;3.00;;;;;;;21.32;47.82;101796.19;5232404;28;20029;-69
2022/08/12 01:01:17;;;;;;;5.32;2.70;;;;;;;21.23;48.32;101796.44;5233533;28;20025;-69
2022/08/12 01:12:22;;;;;;;3.50;2.40;;;;;;;21.36;47.24;101786.84;5230411;28;20029;-69
2022/08/12 01:14:53;;;;;;;7.63;2.60;;;;;;;21.36;47.58;101791.38;5231313;28;20128;-69
2022/08/12 01:17:25;;;;;;;4.13;2.60;;;;;;;21.34;47.43;101785.41;5233124;28;20104;-70
2022/08/12 01:20:01;;;;;;;4.83;2.60;;;;;;;21.45;47.42;101800.16;5221200;28;20029;-70
2022/08/12 01:22:51;;;;;;;4.78;2.00;;;;;;;21.59;46.77;101796.69;5223564;28;20100;-70
2022/08/12 01:25:27;;;;;;;5.97;2.33;;;;;;;21.37;47.92;101790.38;5231962;28;20026;-70
2022/08/12 01:28:01;;;;;;;5.40;2.40;;;;;;;21.34;47.85;101790.72;5226331;28;20048;-70
2022/08/12 01:30:34;;;;;;;5.40;2.17;;;;;;;21.34;47.92;101798.72;5231621;28;20116;-69
2022/08/12 01:33:12;;;;;;;5.90;2.30;;;;;;;21.43;47.18;101799.50;5231028;28;20037;-70
2022/08/12 01:35:57;;;;;;;4.35;2.38;;;;;;;21.46;47.72;101789.31;5252542;22;20057;-66
2022/08/12 01:38:32;;;;;;;4.13;2.60;;;;;;;21.35;48.41;101790.53;5230068;28;20021;-69
2022/08/12 01:41:10;;;;;;;5.63;2.30;;;;;;;21.36;48.56;101792.19;5234375;28;20037;-69
2022/08/12 01:43:43;;;;;;;4.13;2.33;;;;;;;21.20;48.69;101794.13;5235373;28;20479;-69
2022/08/12 01:46:42;;;;;;;5.97;2.60;;;;;;;21.25;48.79;101795.28;5229239;28;20021;-69
2022/08/12 01:50:01;;;;;;;4.43;2.10;;;;;;;21.51;47.97;101794.91;5228247;28;20051;-69
2022/08/12 01:52:47;;;;;;;3.92;2.33;;;;;;;21.33;48.73;101786.41;5231706;28;20026;-70
2022/08/12 01:55:31;;;;;;;5.97;2.50;;;;;;;21.25;49.58;101795.28;5227132;28;21184;-70
2022/08/12 01:58:13;;;;;;;4.20;2.40;;;;;;;21.19;49.42;101787.13;5229562;28;20033;-69
2022/08/12 02:01:10;;;;;;;7.65;2.85;;;;;;;21.43;48.45;101786.97;5231688;28;20103;-69
2022/08/12 02:12:57;;;;;;;5.32;2.88;;;;;;;21.19;50.17;101773.81;5227432;28;20443;-69
2022/08/12 02:15:47;;;;;;;4.68;2.22;;;;;;;21.10;50.32;101781.88;5216453;28;20395;-70
2022/08/12 02:18:27;;;;;;;6.07;2.70;;;;;;;21.03;50.59;101777.44;5230277;28;20025;-69
2022/08/12 02:21:18;;;;;;;5.72;2.50;;;;;;;21.04;50.65;101776.41;5226893;28;20037;-69
2022/08/12 02:23:50;;;;;;;3.65;2.60;;;;;;;20.81;51.27;101784.38;5228834;28;20099;-70
2022/08/12 02:26:25;;;;;;;3.40;2.63;;;;;;;20.85;51.51;101780.34;5230073;28;20400;-69
2022/08/12 02:28:56;;;;;;;5.55;2.88;;;;;;;20.78;51.63;101782.88;5230098;28;20292;-69
2022/08/12 02:31:29;;;;;;;6.83;3.13;;;;;;;20.79;52.32;101781.03;5228465;28;20070;-69
2022/08/12 02:34:01;;;;;;;5.45;3.00;;;;;;;20.80;51.82;101761.41;5232253;28;20259;-69
2022/08/12 02:36:33;;;;;;;7.57;2.93;;;;;;;20.76;52.25;101771.59;5232340;28;20419;-69
2022/08/12 02:39:07;;;;;;;4.73;2.97;;;;;;;20.72;52.54;101777.41;5231340;28;20280;-69
2022/08/12 02:41:42;;;;;;;8.38;3.22;;;;;;;20.70;52.61;101774.94;5231160;28;20025;-69
2022/08/12 02:44:16;;;;;;;4.95;3.00;;;;;;;20.76;52.54;101773.38;5228621;28;20047;-69
2022/08/12 02:46:52;;;;;;;5.47;2.97;;;;;;;20.68;52.96;101773.44;5227966;28;20045;-69
2022/08/12 02:49:33;;;;;;;6.78;3.15;;;;;;;20.73;52.81;101774.59;5229056;28;20022;-69
2022/08/12 02:52:06;;;;;;;5.15;3.47;;;;;;;20.58;53.77;101765.69;5230484;28;20063;-69
2022/08/12 02:54:40;;;;;;;4.43;2.90;;;;;;;20.52;53.93;101772.50;5230364;28;20056;-69
2022/08/12 02:57:13;;;;;;;7.72;3.42;;;;;;;20.49;54.46;101772.00;5226127;28;20029;-67
2022/08/12 02:59:47;;;;;;;4.25;3.10;;;;;;;20.47;54.38;101776.69;5233245;28;20037;-67
2022/08/12 03:02:22;;;;;;;7.03;3.17;;;;;;;20.46;54.84;101773.19;5234956;28;20112;-66
2022/08/12 03:04:56;;;;;;;5.68;3.33;;;;;;;20.36;55.83;101775.22;5235893;28;20053;-68
2022/08/12 03:07:40;;;;;;;6.40;2.92;;;;;;;20.51;55.00;101770.03;5232319;28;20396;-70
2022/08/12 03:10:13;;;;;;;6.47;3.20;;;;;;;20.48;55.30;101770.34;5234198;28;20022;-68
2022/08/12 03:12:45;;;;;;;6.47;3.65;;;;;;;20.27;55.72;101753.13;5233699;28;20076;-68
2022/08/12 03:15:22;;;;;;;6.38;3.28;;;;;;;20.38;55.68;101765.22;5233040;28;20041;-68
2022/08/12 03:17:59;;;;;;;5.28;3.40;;;;;;;20.39;55.54;101770.38;5234147;28;20049;-68
2022/08/12 03:20:36;;;;;;;5.07;3.20;;;;;;;20.39;56.05;101764.22;5232128;28;20430;-67
2022/08/12 03:23:10;;;;;;;5.80;3.17;;;;;;;20.31;56.34;101758.94;5228593;28;20030;-69
2022/08/12 03:25:43;;;;;;;4.53;3.85;;;;;;;20.16;57.07;101758.81;5234798;28;20020;-68
2022/08/12 03:28:49;;;;;;;6.25;3.85;;;;;;;20.26;56.75;101758.59;5236715;28;20037;-67
2022/08/12 03:31:07;;;;;;;9.13;3.35;;;;;;;20.19;57.25;101758.44;5231831;28;20100;-68
2022/08/12 03:33:43;;;;;;;7.80;3.83;;;;;;;20.06;58.23;101760.81;5235639;28;20025;-68
2022/08/12 03:36:19;;;;;;;7.57;4.10;;;;;;;20.08;58.06;101750.88;5232580;28;20496;-68
2022/08/12 03:42:05;;;;;;;5.93;3.85;;;;;;;20.23;57.63;101746.50;5234816;28;20395;-68
2022/08/12 04:01:59;;;;;;;7.25;4.75;;;;;;;19.80;60.82;101755.72;5230714;28;20045;-67
2022/08/12 04:04:33;;;;;;;7.60;4.70;;;;;;;19.79;61.50;101764.72;5233461;28;20021;-69
2022/08/12 04:07:08;;;;;;;8.15;4.60;;;;;;;19.74;61.58;101767.06;5232988;28;20064;-69
2022/08/12 04:09:43;;;;;;;7.07;4.53;;;;;;;19.66;62.23;101754.56;5235022;28;20033;-69
2022/08/12 04:15:04;;;;;;;7.18;4.90;;;;;;;19.58;62.96;101765.19;5232156;28;20026;-69
2022/08/12 04:17:38;;;;;;;7.13;5.00;;;;;;;19.62;63.08;101769.19;5231449;28;20025;-69
2022/08/12 04:20:12;;;;;;;7.20;4.55;;;;;;;19.57;63.52;101766.19;5233401;28;20033;-68
2022/08/12 04:22:45;;;;;;;7.28;4.88;;;;;;;19.57;63.72;101769.66;5234310;28;20030;-67
2022/08/12 04:25:16;;;;;;;;;;;;;;;20.22;57.77;101768.75;5231660;28;20400;-69
2022/08/12 04:27:49;;;;;;;9.73;5.13;;;;;;;19.56;63.76;101765.34;5230071;28;19917;-68
2022/08/12 04:30:22;;;;;;;8.25;5.00;;;;;;;19.53;63.98;101762.19;5233842;28;20025;-68
2022/08/12 04:32:53;;;;;;;;;;;;;;;20.20;58.83;101764.63;5231647;28;20387;-70
2022/08/12 04:35:25;;;;;;;5.73;4.23;;;;;;;19.52;63.78;101765.84;5232109;28;19921;-68
2022/08/12 04:37:57;;;;;;;9.57;4.50;;;;;;;19.45;65.30;101769.16;5229653;28;20044;-69
2022/08/12 04:40:30;;;;;;;10.00;5.23;;;;;;;19.44;65.88;101775.50;5231612;28;20018;-68
2022/08/12 04:43:03;;;;;;;6.80;4.88;;;;;;;19.38;66.19;101775.31;5230714;28;20029;-68
2022/08/12 04:45:36;;;;;;;10.73;5.15;;;;;;;19.39;66.34;101767.16;5230095;28;20484;-68
2022/08/12 04:48:08;;;;;;;8.07;5.60;;;;;;;19.41;66.61;101773.16;5234013;28;20537;-68
2022/08/12 04:50:40;;;;;;;9.70;5.00;;;;;;;19.47;66.16;101771.66;5234566;28;20029;-68
2022/08/12 04:53:12;;;;;;;7.95;5.32;;;;;;;19.42;66.96;101768.66;5230822;28;20076;-68
2022/08/12 04:55:45;;;;;;;11.37;5.87;;;;;;;19.39;67.26;101769.00;5231878;28;20079;-68
2022/08/12 04:58:16;;;;;;;10.05;6.10;;;;;;;19.37;67.21;101766.50;5235081;28;20049;-68
2022/08/12 05:00:48;;;;;;;9.60;5.67;;;;;;;19.45;67.37;101765.69;5232228;28;20056;-68
2022/08/12 05:03:19;;;;;;;9.20;5.77;;;;;;;19.38;67.80;101762.03;5232446;28;20034;-69
2022/08/12 05:05:51;;;;;;;10.48;5.90;;;;;;;19.41;67.46;101761.69;5229464;28;20029;-68
2022/08/12 05:08:24;;;;;;;8.67;5.47;;;;;;;19.46;67.28;101762.03;5231987;28;20022;-68
2022/08/12 05:10:56;;;;;;;9.45;5.60;;;;;;;19.50;67.45;101767.84;5229903;28;20527;-69
2022/08/12 05:13:36;;;;;;;10.35;6.38;;;;;;;19.59;67.30;101772.19;5230122;28;20025;-69
2022/08/12 05:16:08;;;;;;;9.82;5.53;;;;;;;19.43;67.89;101755.22;5232528;28;20022;-69
2022/08/12 05:18:39;;;;;;;9.32;5.75;;;;;;;19.58;67.93;101759.84;5231840;28;20418;-68
2022/08/12 05:21:10;;;;;;;9.18;5.47;;;;;;;19.58;67.58;101751.88;5227122;28;20045;-69
2022/08/12 05:23:42;;;;;;;7.67;5.33;;;;;;;19.62;67.66;101759.41;5232149;28;20108;-68
2022/08/12 05:26:13;;;;;;;11.30;5.82;;;;;;;19.63;67.13;101766.38;5230717;28;20049;-69
2022/08/12 05:28:45;;;;;;;8.57;5.78;;;;;;;19.58;67.63;101750.06;5232147;28;20047;-68
2022/08/12 05:31:16;;;;;;;6.57;5.25;;;;;;;19.75;67.86;101774.03;5231673;28;20029;-68
2022/08/12 05:33:47;;;;;;;7.17;5.23;;;;;;;19.76;67.43;101776.50;5232764;28;20031;-68
2022/08/12 05:36:19;;;;;;;7.00;5.00;;;;;;;19.74;68.17;101775.03;5230682;28;20045;-69
2022/08/12 05:38:56;;;;;;;8.50;5.05;;;;;;;19.78;67.25;101771.03;5227186;28;20036;-69
2022/08/12 05:41:33;;;;;;;6.10;5.50;;;;;;;19.84;68.04;101775.66;5233002;28;20025;-68
2022/08/12 05:44:12;;;;;;;7.05;5.05;;;;;;;19.88;67.70;101787.63;5232544;28;20034;-68
2022/08/12 05:46:44;;;;;;;6.85;5.35;;;;;;;19.82;68.31;101785.66;5230028;28;20030;-68
2022/08/12 05:49:15;;;;;;;7.07;5.63;;;;;;;19.90;67.23;101785.63;5224982;28;20112;-68
2022/08/12 05:51:46;;;;;;;7.68;5.07;;;;;;;19.93;67.24;101783.47;5232620;28;20028;-68
2022/08/12 05:54:18;;;;;;;12.73;5.68;;;;;;;19.98;66.98;101790.94;5226437;28;20175;-67
2022/08/12 05:56:51;;;;;;;10.73;5.63;;;;;;;20.07;66.55;101789.91;5228483;28;20029;-69
2022/08/12 05:59:23;;;;;;;7.15;5.40;;;;;;;20.12;66.44;101786.75;5230514;28;20095;-68
2022/08/12 06:02:02;;;;;;;9.13;5.70;;;;;;;20.17;66.24;101795.88;5231988;28;20013;-69
2022/08/12 06:04:33;;;;;;;7.25;5.95;;;;;;;20.23;65.99;101789.06;5229936;28;20017;-69
2022/08/12 06:07:07;;;;;;;7.67;5.70;;;;;;;20.34;65.79;101794.03;5231517;28;20021;-68
2022/08/12 06:09:39;;;;;;;6.22;5.35;;;;;;;20.38;66.48;101787.34;5228282;28;20045;-69
2022/08/12 06:12:10;;;;;;;13.33;5.83;;;;;;;20.50;65.57;101785.19;5228307;28;20120;-70
2022/08/12 06:14:43;;;;;;;6.97;5.70;;;;;;;20.59;65.00;101796.63;5231492;28;20056;-68
2022/08/12 06:17:15;;;;;;;8.70;5.38;;;;;;;20.69;63.74;101793.75;5225498;28;20021;-69
2022/08/12 06:19:47;;;;;;;9.13;5.77;;;;;;;20.82;64.34;101796.69;5225736;28;20757;-68
2022/08/12 06:22:19;;;;;;;7.03;5.53;;;;;;;20.89;64.18;101793.13;5231603;28;20022;-68
2022/08/12 06:24:52;;;;;;;9.32;5.35;;;;;;;21.04;63.34;101798.56;5228185;28;20036;-68
2022/08/12 06:27:23;;;;;;;8.48;5.60;;;;;;;21.16;63.15;101792.81;5222655;28;20383;-68
2022/08/12 06:29:55;;;;;;;10.53;6.17;;;;;;;21.28;61.52;101796.72;5228317;28;20030;-68
2022/08/12 06:32:27;;;;;;;10.57;5.03;;;;;;;21.37;61.85;101793.88;5228939;28;20029;-68
2022/08/12 06:34:58;;;;;;;7.55;5.38;;;;;;;21.48;62.41;101787.28;5220511;28;20077;-68
2022/08/12 06:37:40;;;;;;;8.93;5.30;;;;;;;21.77;62.00;101789.19;5226041;28;20519;-68
2022/08/12 06:40:12;;;;;;;6.87;5.20;;;;;;;21.82;59.51;101793.97;5226582;28;20108;-68
2022/08/12 06:42:53;;;;;;;6.77;4.70;;;;;;;21.90;59.68;101783.25;5223747;28;20037;-70
2022/08/12 06:45:25;;;;;;;5.88;4.88;;;;;;;22.09;58.55;101787.22;5224955;28;20567;-67
2022/08/12 06:47:58;;;;;;;6.78;4.97;;;;;;;22.21;56.88;101785.78;5221017;28;20033;-68
2022/08/12 06:50:30;;;;;;;7.32;4.82;;;;;;;22.45;57.55;101786.50;5226152;28;20076;-68
2022/08/12 06:53:04;;;;;;;6.73;4.70;;;;;;;22.59;55.91;101777.66;5223636;28;20029;-68
2022/08/12 06:55:35;;;;;;;9.88;5.38;;;;;;;22.73;54.50;101778.63;5229056;28;20302;-69
2022/08/12 06:58:07;;;;;;;7.87;3.83;;;;;;;22.90;55.19;101782.75;5225732;28;20048;-68
2022/08/12 07:00:38;;;;;;;12.27;4.90;;;;;;;23.02;54.54;101772.41;5215905;28;20084;-68
2022/08/12 07:03:19;;;;;;;8.47;4.57;;;;;;;23.14;52.23;101768.22;5227960;28;20104;-68
2022/08/12 07:05:51;;;;;;;8.38;4.75;;;;;;;23.27;50.57;101772.88;5228954;28;20026;-68
2022/08/12 07:08:27;;;;;;;9.60;4.17;;;;;;;23.55;49.90;101773.75;5222874;28;20104;-69
2022/08/12 07:11:04;;;;;;;8.75;4.35;;;;;;;23.67;51.15;101770.56;5223357;28;20048;-69
2022/08/12 07:13:41;;;;;;;8.38;4.38;;;;;;;23.82;50.02;101773.97;5227550;28;20511;-69
2022/08/12 07:16:15;;;;;;;8.30;4.22;;;;;;;23.96;49.16;101770.38;5225201;28;20356;-69
2022/08/12 07:18:49;;;;;;;7.72;3.58;;;;;;;24.21;48.83;101777.94;5221181;28;20057;-69
2022/08/12 07:21:20;;;;;;;8.20;3.97;;;;;;;24.22;47.93;101782.28;5211020;28;20033;-69
2022/08/12 07:23:51;;;;;;;8.57;3.87;;;;;;;24.46;46.93;101781.78;5228347;28;20021;-72
2022/08/12 07:26:23;;;;;;;7.03;3.50;;;;;;;24.66;46.49;101786.41;5221235;28;20136;-69
2022/08/12 07:28:54;;;;;;;8.23;3.93;;;;;;;24.76;45.46;101790.38;5215778;28;20464;-69
2022/08/12 07:31:26;;;;;;;6.53;3.90;;;;;;;24.89;43.08;101794.97;5222076;28;20080;-69
2022/08/12 07:33:58;;;;;;;6.82;3.83;;;;;;;25.11;44.35;101792.13;5220043;28;20032;-70
2022/08/12 07:36:32;;;;;;;8.05;3.28;;;;;;;25.27;44.24;101791.78;5242206;22;20054;-72
2022/08/12 07:39:03;;;;;;;11.18;3.33;;;;;;;25.36;42.87;101787.03;5232857;28;20069;-72
2022/08/12 07:41:34;;;;;;;9.10;3.90;;;;;;;25.60;42.21;101788.25;5235261;28;20499;-72
2022/08/12 07:44:07;;;;;;;8.87;3.50;;;;;;;25.75;42.70;101802.28;5234471;28;20035;-72
2022/08/12 07:46:40;;;;;;;;;;;;;;;26.27;40.46;101794.41;5229410;28;20096;-72
2022/08/12 07:49:14;;;;;;;6.97;3.30;;;;;;;26.03;40.53;101799.41;5225431;28;20679;-72
2022/08/12 07:51:45;;;;;;;5.50;3.05;;;;;;;26.04;40.17;101795.69;5224350;28;20029;-71
2022/08/12 07:54:16;;;;;;;6.67;3.00;;;;;;;26.16;38.98;101793.19;5227567;28;20044;-72
2022/08/12 07:56:48;;;;;;;7.97;3.83;;;;;;;26.41;38.76;101782.59;5226915;28;20025;-72
2022/08/12 07:59:19;;;;;;;7.17;3.17;;;;;;;26.55;38.51;101794.94;5224081;28;20083;-74
2022/08/12 08:01:51;;;;;;;8.00;3.27;;;;;;;26.71;37.96;101788.28;5226674;28;20037;-72
2022/08/12 08:07:14;;;;;;;9.50;4.03;;;;;;;26.92;36.44;101797.88;5224469;28;20042;-72
2022/08/12 08:09:46;;;;;;;7.22;3.15;;;;;;;27.14;35.97;101798.41;5226300;28;20037;-72
2022/08/12 08:15:09;;;;;;;8.52;3.10;;;;;;;27.25;36.07;101797.69;5228007;28;20033;-73
2022/08/12 08:18:02;;;;;;;9.07;3.35;;;;;;;27.61;36.38;101801.56;5220450;28;20021;-74
2022/08/12 08:20:44;;;;;;;5.13;3.22;;;;;;;27.68;35.72;101807.72;5243306;28;20128;-74
2022/08/12 08:23:17;;;;;;;4.68;2.97;;;;;;;27.68;34.78;101801.50;5228657;28;20593;-73
2022/08/12 08:25:48;;;;;;;7.75;3.25;;;;;;;27.89;35.00;101804.66;5227225;28;20396;-73
2022/08/12 08:28:20;;;;;;;5.77;2.90;;;;;;;27.96;34.95;101803.75;5227503;28;20021;-73
2022/08/12 08:30:52;;;;;;;5.47;3.00;;;;;;;28.16;35.02;101799.00;5224167;28;20116;-73
2022/08/12 08:33:23;;;;;;;7.82;2.95;;;;;;;28.34;35.39;101806.25;5226542;28;20056;-73
2022/08/12 08:35:55;;;;;;;7.07;2.97;;;;;;;28.43;34.13;101804.94;5229610;28;20050;-73
2022/08/12 08:38:26;;;;;;;4.77;2.90;;;;;;;28.69;34.52;101817.25;5216790;28;20018;-72
2022/08/12 08:43:47;;;;;;;7.60;3.03;;;;;;;28.63;32.87;101807.38;5222163;28;20496;-73
2022/08/12 08:46:19;;;;;;;11.47;3.33;;;;;;;28.70;33.12;101808.13;5224514;28;20048;-73
2022/08/12 08:48:50;;;;;;;7.03;2.63;;;;;;;28.96;33.42;101809.63;5224211;28;20030;-73
2022/08/12 08:51:24;;;;;;;6.83;2.97;;;;;;;28.99;31.06;101808.38;5222905;28;20021;-74
2022/08/12 08:53:56;;;;;;;7.15;2.40;;;;;;;29.10;31.56;101810.31;5225731;28;20075;-73
2022/08/12 08:56:30;;;;;;;4.93;2.63;;;;;;;29.28;31.03;101810.25;5225117;28;20459;-73
2022/08/12 08:59:01;;;;;;;4.95;2.78;;;;;;;29.44;30.86;101810.63;5222684;28;20049;-74
2022/08/12 09:01:33;;;;;;;4.97;2.70;;;;;;;29.59;30.12;101808.31;5223690;28;20029;-73
2022/08/12 09:04:05;;;;;;;5.90;2.77;;;;;;;29.64;29.48;101805.72;5225330;28;20041;-74
2022/08/12 09:06:38;;;;;;;7.10;2.90;;;;;;;29.81;30.68;101806.69;5225430;28;20104;-76
2022/08/12 09:09:10;;;;;;;6.55;2.55;;;;;;;29.86;28.81;101803.28;5228134;28;20048;-74
2022/08/12 09:14:32;;;;;;;4.85;2.58;;;;;;;30.26;28.70;101791.72;5226718;28;20484;-73
2022/08/12 09:17:04;;;;;;;4.20;2.70;;;;;;;30.44;29.63;101794.25;5230505;28;20026;-73
2022/08/12 09:19:36;;;;;;;5.18;2.78;;;;;;;30.62;28.98;101795.97;5229515;28;20033;-74
2022/08/12 09:22:07;;;;;;;7.63;2.60;;;;;;;30.69;27.31;101796.66;5227540;28;20057;-74
2022/08/12 09:24:39;;;;;;;9.53;2.53;;;;;;;30.69;27.90;101785.84;5229451;28;20061;-74
2022/08/12 09:27:15;;;;;;;3.50;2.53;;;;;;;31.03;29.14;101799.47;5227462;28;20033;-73
2022/08/12 09:29:46;;;;;;;5.80;2.95;;;;;;;31.07;29.38;101799.81;5230837;28;20458;-73
2022/08/12 09:32:17;;;;;;;5.77;2.50;;;;;;;31.33;27.92;101798.38;5225899;28;20021;-74
2022/08/12 09:34:48;;;;;;;6.30;2.70;;;;;;;31.33;27.63;101791.09;5226057;28;20022;-74
2022/08/12 09:37:20;;;;;;;4.43;2.53;;;;;;;31.31;26.51;101786.97;5223303;28;20029;-73
2022/08/12 09:39:52;;;;;;;4.23;2.20;;;;;;;31.65;26.61;101785.88;5224716;28;20032;-74
2022/08/12 09:45:21;;;;;;;5.72;2.83;;;;;;;31.60;25.93;101780.41;5226454;28;20108;-74
2022/08/12 09:47:53;;;;;;;5.03;2.50;;;;;;;31.57;25.20;101780.06;5220708;28;20500;-72
2022/08/12 09:50:25;;;;;;;7.57;2.47;;;;;;;31.72;25.20;101780.31;5222237;28;20036;-72
2022/08/12 09:53:14;;;;;;;6.75;2.33;;;;;;;31.95;25.87;101771.16;5222335;28;20785;-73
2022/08/12 09:55:48;;;;;;;8.65;2.00;;;;;;;32.07;25.30;101780.00;5224116;28;20038;-73
2022/08/12 09:58:27;;;;;;;4.97;2.38;;;;;;;32.09;25.24;101772.44;5227847;28;20017;-74
2022/08/12 10:01:03;;;;;;;5.25;2.25;;;;;;;32.03;25.29;101769.91;5224324;28;20041;-72
2022/08/12 10:03:36;;;;;;;6.03;2.50;;;;;;;32.28;25.33;101770.22;5222841;28;20110;-73
2022/08/12 10:06:08;;;;;;;6.13;2.83;;;;;;;32.16;24.83;101762.22;5218283;28;20376;-73
2022/08/12 10:08:39;;;;;;;;;;;;;;;33.01;25.56;101765.34;5221042;28;20029;-73
2022/08/12 10:14:00;;;;;;;5.10;2.55;;;;;;;32.26;24.69;101755.28;5221703;28;20038;-72
2022/08/12 10:16:32;;;;;;;5.90;2.20;;;;;;;32.57;25.60;101761.88;5221452;28;20030;-72
2022/08/12 10:19:04;;;;;;;4.68;2.45;;;;;;;32.57;24.64;101762.69;5212515;28;20022;-73
2022/08/12 10:21:37;;;;;;;4.47;2.17;;;;;;;32.36;23.35;101766.25;5219337;28;20491;-71
2022/08/12 10:24:08;;;;;;;5.38;2.15;;;;;;;32.36;23.62;101752.69;5225238;28;20162;-72
2022/08/12 10:29:38;;;;;;;5.32;2.25;;;;;;;32.28;23.74;101748.53;5220508;28;20038;-73
2022/08/12 10:32:15;;;;;;;5.28;2.05;;;;;;;32.40;23.55;101734.88;5221579;28;20040;-73
2022/08/12 10:34:47;;;;;;;3.60;2.03;;;;;;;32.47;23.46;101746.34;5218505;28;20029;-73
2022/08/12 10:37:19;;;;;;;;;;;;;;;33.33;23.71;101740.88;5218459;28;20112;-73
2022/08/12 10:39:50;;;;;;;5.53;2.92;;;;;;;32.70;23.86;101735.19;5214454;28;20019;-73
2022/08/12 10:45:12;;;;;;;4.63;2.33;;;;;;;32.74;23.09;101731.97;5218324;28;20034;-73
2022/08/12 10:47:47;;;;;;;5.50;2.45;;;;;;;33.03;23.05;101727.06;5222643;28;20021;-75
2022/08/12 10:50:21;;;;;;;4.45;2.13;;;;;;;33.05;22.74;101728.44;5220904;28;20030;-75
2022/08/12 10:52:52;;;;;;;4.78;2.10;;;;;;;32.92;23.37;101718.81;5217748;28;20473;-75
2022/08/12 10:55:23;;;;;;;3.58;1.88;;;;;;;33.03;22.70;101718.91;5222258;28;20034;-73
2022/08/12 10:57:55;;;;;;;5.53;2.10;;;;;;;32.98;22.34;101716.16;5220033;28;20083;-73
2022/08/12 11:00:26;;;;;;;4.90;2.23;;;;;;;33.03;22.50;101718.91;5222857;28;20767;-73
2022/08/12 11:02:58;;;;;;;4.85;2.30;;;;;;;33.27;22.13;101712.06;5222510;28;20495;-72
2022/08/12 11:05:33;;;;;;;4.25;2.00;;;;;;;33.12;22.69;101723.63;5215738;28;20526;-72
2022/08/12 11:08:04;;;;;;;5.88;2.50;;;;;;;33.17;22.20;101711.97;5208365;28;20034;-72
2022/08/12 11:10:35;;;;;;;;;;;;;;;33.90;22.18;101712.94;5221168;28;20071;-72
2022/08/12 11:13:07;;;;;;;5.07;2.37;;;;;;;33.26;22.64;101698.72;5217393;28;19916;-72
2022/08/12 11:15:38;;;;;;;5.47;2.60;;;;;;;33.27;22.21;101692.22;5219791;28;20037;-71
2022/08/12 11:18:11;;;;;;;6.57;2.50;;;;;;;33.29;22.91;101685.44;5223092;28;20155;-71
2022/08/12 11:20:42;;;;;;;5.47;2.40;;;;;;;33.42;22.40;101698.56;5224342;28;20371;-71
2022/08/12 11:23:14;;;;;;;;;;;;;;;34.13;21.54;101698.13;5231805;28;20060;-72
2022/08/12 11:25:46;;;;;;;3.35;2.35;;;;;;;33.26;22.28;101688.66;5225755;28;20409;-71
2022/08/12 11:28:17;;;;;;;;;;;;;;;33.99;22.22;101686.13;5226759;28;20100;-71
2022/08/12 11:30:49;;;;;;;3.70;2.37;;;;;;;33.48;22.51;101690.47;5222755;28;19936;-70
2022/08/12 11:33:20;;;;;;;4.85;2.38;;;;;;;33.34;22.57;101681.97;5214545;28;20021;-73
2022/08/12 11:35:51;;;;;;;4.83;2.33;;;;;;;33.55;22.21;101686.44;5212268;28;20080;-73
2022/08/12 11:38:23;;;;;;;3.83;2.23;;;;;;;33.47;21.43;101684.22;5211509;28;20096;-72
2022/08/12 11:40:54;;;;;;;;;;;;;;;34.32;21.51;101678.56;5202745;28;20144;-73
2022/08/12 11:43:25;;;;;;;8.40;2.20;;;;;;;33.54;22.17;101673.94;5216106;28;19921;-73
2022/08/12 11:45:56;;;;;;;;;;;;;;;34.43;21.69;101671.25;5225089;28;20030;-73
2022/08/12 11:48:28;;;;;;;7.55;2.55;;;;;;;33.93;20.97;101668.13;5224615;28;19913;-73
2022/08/12 11:50:59;;;;;;;;;;;;;;;34.68;20.69;101663.13;5221578;28;20036;-72
2022/08/12 11:53:30;;;;;;;5.53;2.03;;;;;;;33.91;21.54;101678.44;5219337;28;19921;-73
2022/08/12 11:56:04;;;;;;;4.57;2.40;;;;;;;34.04;21.61;101664.38;5226972;28;20150;-73
2022/08/12 11:58:35;;;;;;;3.22;2.30;;;;;;;33.96;21.12;101675.75;5226310;28;20296;-73
2022/08/12 12:01:07;;;;;;;;;;;;;;;34.76;20.39;101657.13;5227534;28;20026;-73
2022/08/12 12:03:38;;;;;;;4.27;2.20;;;;;;;33.99;20.85;101655.41;5227481;28;19917;-74
2022/08/12 12:06:09;;;;;;;;;;;;;;;34.73;20.85;101656.88;5220777;28;20633;-75
2022/08/12 12:08:40;;;;;;;4.63;2.13;;;;;;;33.96;21.81;101666.78;5227111;28;19917;-72
2022/08/12 12:11:12;;;;;;;;;;;;;;;34.75;21.18;101649.25;5228483;28;20363;-72
2022/08/12 12:13:43;;;;;;;7.27;2.33;;;;;;;34.13;21.33;101640.19;5223305;28;19913;-73
2022/08/12 12:16:14;;;;;;;;;;;;;;;35.03;21.44;101634.28;5226492;28;20335;-72
2022/08/12 12:18:46;;;;;;;4.33;2.33;;;;;;;34.31;20.64;101644.28;5226032;28;19918;-72
2022/08/12 12:21:17;;;;;;;;;;;;;;;35.17;20.46;101645.41;5225328;28;20363;-72
2022/08/12 12:23:48;;;;;;;3.13;2.00;;;;;;;34.23;20.44;101644.84;5225485;28;19964;-73
2022/08/12 12:26:19;;;;;;;;;;;;;;;35.07;20.53;101646.25;5224854;28;20073;-73
2022/08/12 12:28:51;;;;;;;4.40;2.10;;;;;;;34.61;20.37;101644.34;5227479;28;19909;-73
2022/08/12 12:31:23;;;;;;;;;;;;;;;35.25;19.90;101644.84;5226125;28;20454;-73
2022/08/12 12:33:54;;;;;;;9.35;2.08;;;;;;;34.58;20.48;101634.00;5224415;28;19913;-73
2022/08/12 12:36:25;;;;;;;;;;;;;;;35.22;19.75;101629.84;5225479;28;20045;-72
2022/08/12 12:38:57;;;;;;;3.80;2.20;;;;;;;34.49;20.05;101632.06;5221873;28;20380;-72
2022/08/12 12:41:28;;;;;;;;;;;;;;;35.16;19.60;101624.69;5222707;28;20034;-73
2022/08/12 12:43:59;;;;;;;6.60;2.00;;;;;;;34.22;19.89;101630.41;5223766;28;20019;-72
2022/08/12 12:46:31;;;;;;;;;;;;;;;35.04;20.07;101614.94;5225962;28;20025;-72
2022/08/12 12:49:02;;;;;;;5.27;2.00;;;;;;;34.62;20.98;101624.19;5225353;28;20328;-72
2022/08/12 12:51:33;;;;;;;;;;;;;;;35.18;20.31;101623.34;5223377;28;20314;-72
2022/08/12 12:54:05;;;;;;;6.73;2.47;;;;;;;34.37;20.91;101613.31;5223403;28;19916;-72
2022/08/12 12:56:39;;;;;;;;;;;;;;;35.26;20.62;101611.06;5222546;28;20473;-73
2022/08/12 12:59:10;;;;;;;5.70;2.28;;;;;;;34.79;20.56;101612.22;5224515;28;20283;-73
2022/08/12 13:01:42;;;;;;;;;;;;;;;35.53;20.19;101614.25;5231318;28;20030;-73
2022/08/12 13:04:13;;;;;;;7.45;2.22;;;;;;;34.73;20.32;101605.16;5223982;28;20035;-71
2022/08/12 13:06:50;;;;;;;;;;;;;;;35.49;20.50;101607.72;5222804;28;20029;-72
2022/08/12 13:09:22;;;;;;;7.05;2.45;;;;;;;34.75;20.40;101600.25;5225674;28;19936;-71
2022/08/12 13:11:54;;;;;;;;;;;;;;;35.48;20.32;101599.81;5228054;28;20025;-71
2022/08/12 13:14:25;;;;;;;4.43;2.60;;;;;;;34.69;21.44;101595.91;5220267;28;19924;-71
2022/08/12 13:16:59;;;;;;;;;;;;;;;35.61;20.72;101601.94;5222781;28;20026;-71
2022/08/12 13:19:35;;;;;;;7.65;2.88;;;;;;;34.78;20.34;101578.75;5228684;28;20380;-72
2022/08/12 13:22:16;;;;;;;8.40;2.70;;;;;;;34.59;20.49;101592.09;5220076;28;20510;-71
2022/08/12 13:24:50;;;;;;;7.38;2.97;;;;;;;34.88;20.93;101596.97;5231238;28;20045;-72
2022/08/12 13:27:22;;;;;;;7.70;3.00;;;;;;;34.72;20.79;101596.16;5230729;28;20021;-71
2022/08/12 13:29:53;;;;;;;6.63;3.00;;;;;;;34.55;20.51;101595.63;5214195;28;20038;-70
2022/08/12 13:32:28;;;;;;;8.30;3.08;;;;;;;34.69;20.76;101582.28;5220374;28;20033;-71
2022/08/12 13:35:01;;;;;;;4.82;2.88;;;;;;;34.78;21.03;101581.47;5230724;28;20025;-70
2022/08/12 13:37:33;;;;;;;8.07;2.90;;;;;;;34.74;20.73;101580.41;5224428;28;20057;-71
2022/08/12 13:40:04;;;;;;;5.25;2.55;;;;;;;34.81;20.98;101570.00;5225069;28;20064;-70
2022/08/12 13:42:38;;;;;;;;;;;;;;;35.65;20.21;101577.66;5221700;28;20025;-71
2022/08/12 13:45:09;;;;;;;3.65;2.50;;;;;;;34.91;20.29;101573.81;5224025;28;20020;-71
2022/08/12 13:47:54;;;;;;;7.22;2.50;;;;;;;35.21;20.44;101572.94;5228182;28;20025;-71